Time;durP1;ratioP1;P1;durP2;ratioP2;P2;SDS_P1;SDS_P2;PMS_P1;PMS_P2;Temp;Humidity;BMP_temperature;BMP_pressure;BME280_temperature;BME280_humidity;BME280_pressure;Samples;Min_cycle;Max_cycle;Signal;HPM_P1;HPM_P2
2022/03/07 05:14:27;;;;;;;6.22;5.63;;;-3.40;99.90;;;;;;4991922;28;20596;-65
2022/03/07 05:16:53;;;;;;;11.55;7.75;;;-3.20;99.90;;;;;;4993444;28;20293;-66
2022/03/07 05:19:20;;;;;;;8.70;7.60;;;-3.20;99.90;;;;;;4993741;28;20297;-66
2022/03/07 05:21:47;;;;;;;12.07;8.38;;;-3.20;99.90;;;;;;4996376;28;20213;-65
2022/03/07 05:24:14;;;;;;;8.80;7.90;;;-3.20;99.90;;;;;;4996829;28;20229;-65
2022/03/07 05:26:41;;;;;;;11.52;8.15;;;-3.20;99.90;;;;;;4996874;28;20253;-66
2022/03/07 05:29:08;;;;;;;8.52;7.65;;;-3.20;99.90;;;;;;4996806;28;20285;-67
2022/03/07 05:31:36;;;;;;;10.80;8.55;;;-3.30;99.90;;;;;;4996496;28;20665;-67
2022/03/07 05:34:03;;;;;;;11.95;8.38;;;-3.30;99.90;;;;;;4996291;28;20625;-66
2022/03/07 05:36:30;;;;;;;10.15;8.43;;;-3.40;99.90;;;;;;4996722;28;20257;-66
2022/03/07 05:38:57;;;;;;;8.63;7.65;;;-3.40;99.90;;;;;;4996590;28;20217;-66
2022/03/07 05:41:24;;;;;;;8.00;7.10;;;-3.40;99.90;;;;;;4997442;28;20290;-67
2022/03/07 05:43:51;;;;;;;8.20;6.57;;;-3.40;99.90;;;;;;4996518;28;20227;-67
2022/03/07 05:46:17;;;;;;;8.27;6.88;;;-3.40;99.90;;;;;;4996475;28;20244;-66
2022/03/07 05:48:46;;;;;;;6.78;6.15;;;-3.50;99.90;;;;;;4996567;28;20282;-66
2022/03/07 05:51:12;;;;;;;7.03;6.32;;;-3.50;99.90;;;;;;4996553;28;20228;-67
2022/03/07 05:53:39;;;;;;;8.10;6.55;;;-3.50;99.90;;;;;;4996110;28;20309;-68
2022/03/07 05:56:06;;;;;;;8.48;6.78;;;-3.50;99.90;;;;;;4996067;28;20209;-68
2022/03/07 05:58:33;;;;;;;7.50;6.28;;;-3.60;99.90;;;;;;5020444;23;20206;-69
2022/03/07 06:01:00;;;;;;;9.38;6.72;;;-3.50;99.90;;;;;;4996214;28;20233;-69
2022/03/07 06:03:27;;;;;;;7.75;6.95;;;-3.50;99.90;;;;;;4996079;28;20263;-69
2022/03/07 06:05:55;;;;;;;7.90;6.30;;;-3.50;99.90;;;;;;4996326;28;20225;-69
2022/03/07 06:08:22;;;;;;;7.97;6.38;;;-3.50;99.90;;;;;;4996323;28;20198;-69
2022/03/07 06:10:49;;;;;;;6.78;6.10;;;-3.50;99.90;;;;;;4996344;28;20234;-69
2022/03/07 06:13:16;;;;;;;8.13;6.25;;;-3.50;99.90;;;;;;4995932;28;20206;-71
2022/03/07 06:15:43;;;;;;;11.13;8.48;;;-3.40;99.90;;;;;;4996378;28;20226;-73
2022/03/07 06:18:11;;;;;;;11.02;8.15;;;-3.40;99.90;;;;;;4996274;28;20207;-73
2022/03/07 06:20:39;;;;;;;12.25;7.72;;;-3.30;99.90;;;;;;4995910;28;20218;-73
2022/03/07 06:23:07;;;;;;;9.45;7.72;;;-3.20;99.90;;;;;;4996419;28;20203;-73
2022/03/07 06:25:35;;;;;;;12.85;8.52;;;-3.10;99.90;;;;;;4995822;28;20394;-73
2022/03/07 06:28:02;;;;;;;10.27;8.63;;;-3.00;99.90;;;;;;4995790;28;20568;-73
2022/03/07 06:30:29;;;;;;;10.52;8.52;;;-2.70;99.90;;;;;;4995681;28;20718;-74
2022/03/07 06:32:56;;;;;;;9.15;7.50;;;-2.00;99.90;;;;;;4995418;28;20205;-73
2022/03/07 06:35:23;;;;;;;8.93;7.53;;;-1.10;99.90;;;;;;4996800;28;20214;-73
2022/03/07 06:37:51;;;;;;;9.15;7.90;;;-0.20;99.90;;;;;;4995982;28;20290;-73
2022/03/07 06:40:20;;;;;;;7.95;7.03;;;0.70;99.90;;;;;;4995981;28;20555;-74
2022/03/07 06:42:47;;;;;;;8.20;7.40;;;1.60;99.90;;;;;;4996305;28;20289;-74
2022/03/07 06:45:16;;;;;;;7.70;6.95;;;2.30;84.50;;;;;;5006440;28;20282;-73
2022/03/07 06:47:43;;;;;;;7.47;6.78;;;2.50;63.30;;;;;;5003092;28;20688;-73
2022/03/07 06:50:11;;;;;;;6.18;5.68;;;2.60;60.00;;;;;;4996442;28;20329;-74
2022/03/07 06:52:38;;;;;;;10.07;7.50;;;3.10;71.10;;;;;;4996003;28;20206;-74
2022/03/07 06:55:05;;;;;;;7.30;6.55;;;3.80;55.40;;;;;;4995850;28;20226;-75
2022/03/07 06:57:34;;;;;;;7.93;6.88;;;4.50;57.60;;;;;;4995682;28;20237;-74
2022/03/07 11:06:05;;;;;;;15.27;9.70;;;2.20;40.80;;;;;;5283744;23;20238;-72
2022/03/07 11:08:32;;;;;;;11.18;8.73;;;2.10;39.80;;;;;;4994563;28;20677;-72
2022/03/07 11:11:01;;;;;;;14.25;9.52;;;2.00;41.20;;;;;;4995188;28;20202;-71
2022/03/07 11:13:30;;;;;;;14.88;10.18;;;2.00;39.70;;;;;;4999776;28;20744;-71
2022/03/07 11:15:58;;;;;;;13.25;9.07;;;2.00;40.40;;;;;;4997960;28;20233;-71
2022/03/07 11:18:26;;;;;;;13.85;9.00;;;2.10;40.70;;;;;;4996346;28;20294;-71
2022/03/07 11:20:55;;;;;;;15.45;11.30;;;2.30;39.60;;;;;;4995439;28;20741;-71
2022/03/07 11:23:24;;;;;;;14.98;11.82;;;2.30;39.60;;;;;;4995224;28;20244;-71
2022/03/07 11:25:51;;;;;;;13.30;8.90;;;2.30;40.00;;;;;;4994534;28;20265;-72
2022/03/07 11:28:21;;;;;;;11.55;8.55;;;2.20;39.90;;;;;;4994790;28;20208;-71
2022/03/07 11:30:48;;;;;;;12.27;9.63;;;2.20;39.40;;;;;;4994854;28;20198;-72
2022/03/07 11:33:19;;;;;;;12.18;9.32;;;2.20;39.10;;;;;;4994808;28;20198;-71
2022/03/07 11:35:47;;;;;;;13.60;9.50;;;2.00;37.60;;;;;;4994556;28;20573;-71
2022/03/07 11:38:17;;;;;;;13.75;9.43;;;2.00;37.70;;;;;;4994959;28;20207;-71
2022/03/07 11:40:59;;;;;;;11.23;8.98;;;2.00;38.70;;;;;;4994473;28;20234;-71
2022/03/07 11:43:28;;;;;;;11.82;9.40;;;2.10;39.20;;;;;;4994240;28;20191;-71
2022/03/07 11:45:57;;;;;;;11.98;8.77;;;2.20;39.70;;;;;;4994508;28;20321;-71
2022/03/07 11:48:24;;;;;;;13.15;8.82;;;2.30;40.00;;;;;;4994592;28;20205;-71
2022/03/07 11:50:51;;;;;;;11.98;8.82;;;2.30;39.70;;;;;;4994728;28;20203;-71
2022/03/07 11:53:19;;;;;;;12.10;8.60;;;2.30;38.70;;;;;;4994342;28;20245;-71
2022/03/07 11:55:48;;;;;;;11.38;8.75;;;2.30;39.30;;;;;;4994259;28;20254;-71
2022/03/07 11:58:27;;;;;;;10.65;8.75;;;2.30;38.90;;;;;;4995157;28;20238;-72
2022/03/07 12:01:04;;;;;;;10.98;7.95;;;2.30;38.90;;;;;;5000684;28;20198;-72
2022/03/07 12:03:36;;;;;;;14.27;9.48;;;2.30;38.80;;;;;;4998801;28;20197;-72
2022/03/07 12:06:06;;;;;;;11.85;9.20;;;2.30;38.10;;;;;;4998325;28;20237;-73
2022/03/07 12:08:44;;;;;;;12.20;8.68;;;2.20;38.30;;;;;;4999257;28;20226;-71
2022/03/07 12:11:25;;;;;;;11.98;9.27;;;2.20;38.80;;;;;;4999572;28;20190;-72
2022/03/07 12:14:02;;;;;;;12.93;9.15;;;2.20;38.00;;;;;;4998574;28;20191;-72
2022/03/07 12:16:32;;;;;;;11.43;8.35;;;2.10;38.20;;;;;;4997093;28;20219;-71
2022/03/07 12:19:11;;;;;;;12.57;8.98;;;2.20;38.60;;;;;;4998281;28;20257;-74
2022/03/07 12:21:42;;;;;;;15.32;11.30;;;2.10;38.80;;;;;;4997862;28;20620;-73
2022/03/07 12:24:11;;;;;;;13.43;10.02;;;2.10;38.80;;;;;;4997618;28;20226;-73
2022/03/07 12:26:45;;;;;;;13.77;10.07;;;2.10;39.20;;;;;;4997316;28;20309;-73
2022/03/07 12:29:14;;;;;;;15.55;9.63;;;2.10;38.80;;;;;;4998425;28;20586;-73
2022/03/07 12:31:50;;;;;;;13.48;9.90;;;2.00;39.40;;;;;;5004709;28;20257;-74
2022/03/07 12:34:22;;;;;;;13.70;9.50;;;2.10;38.90;;;;;;5003963;28;20202;-74
2022/03/07 12:37:00;;;;;;;10.13;8.80;;;2.10;38.50;;;;;;5004464;28;20685;-74
2022/03/07 12:39:29;;;;;;;11.98;9.10;;;2.10;37.50;;;;;;5003668;28;20230;-74
2022/03/07 12:42:01;;;;;;;15.07;11.48;;;2.00;36.90;;;;;;5004560;28;20294;-73
2022/03/07 12:44:29;;;;;;;10.75;9.05;;;1.90;36.80;;;;;;5000769;28;20669;-73
2022/03/07 12:46:56;;;;;;;11.82;9.75;;;1.80;37.60;;;;;;5000093;28;20310;-73
2022/03/07 12:49:23;;;;;;;15.35;11.13;;;1.80;38.40;;;;;;5000007;28;20202;-73
2022/03/07 12:51:51;;;;;;;16.67;10.00;;;1.80;38.60;;;;;;5000416;28;20289;-73
2022/03/07 12:54:27;;;;;;;17.08;10.05;;;1.80;39.40;;;;;;5000252;28;20670;-73
2022/03/07 12:56:53;;;;;;;11.10;8.95;;;1.90;39.50;;;;;;5000047;28;20617;-73
2022/03/07 12:59:25;;;;;;;12.13;9.20;;;2.00;38.80;;;;;;4999855;28;20757;-73
2022/03/07 13:01:54;;;;;;;12.48;9.80;;;2.00;38.20;;;;;;5000613;28;20189;-73
2022/03/07 13:04:26;;;;;;;12.23;9.55;;;2.10;37.80;;;;;;5000251;28;20199;-73
2022/03/07 13:06:53;;;;;;;13.55;9.38;;;2.10;37.00;;;;;;5000756;28;20693;-73
2022/03/07 13:09:27;;;;;;;9.77;8.77;;;2.10;36.90;;;;;;5000071;28;20618;-73
2022/03/07 13:11:54;;;;;;;10.93;9.43;;;2.00;36.70;;;;;;5000218;28;20241;-73
2022/03/07 13:14:23;;;;;;;12.90;9.23;;;2.10;36.80;;;;;;4999723;28;20209;-73
2022/03/07 13:16:51;;;;;;;12.57;9.48;;;2.10;37.20;;;;;;5001754;28;20289;-73
2022/03/07 13:19:22;;;;;;;13.57;9.73;;;2.10;37.30;;;;;;5002842;28;20202;-73
2022/03/07 13:21:53;;;;;;;14.63;11.13;;;2.20;37.20;;;;;;5003718;28;20661;-73
2022/03/07 13:24:23;;;;;;;14.40;10.60;;;2.20;36.90;;;;;;5003794;28;20285;-73
2022/03/07 13:26:59;;;;;;;15.38;10.75;;;2.10;36.70;;;;;;5003979;28;20215;-74
2022/03/07 13:29:29;;;;;;;11.10;9.02;;;2.00;37.50;;;;;;5005140;28;20198;-73
2022/03/07 13:31:59;;;;;;;10.27;9.10;;;2.00;36.60;;;;;;5003748;28;20203;-74
2022/03/07 13:34:30;;;;;;;14.20;9.70;;;2.00;36.80;;;;;;5004004;28;20265;-72
2022/03/07 13:36:58;;;;;;;11.60;9.23;;;2.10;36.40;;;;;;5003574;28;20202;-72
2022/03/07 13:39:28;;;;;;;12.57;9.65;;;2.10;36.20;;;;;;5004136;28;20206;-72
2022/03/07 13:42:00;;;;;;;12.27;8.82;;;2.10;36.10;;;;;;5002883;28;20203;-74
2022/03/07 13:44:29;;;;;;;12.40;9.45;;;2.10;34.70;;;;;;5000771;28;20234;-72
2022/03/07 13:47:02;;;;;;;12.93;8.65;;;2.00;35.20;;;;;;5000888;28;20215;-72
2022/03/07 13:49:46;;;;;;;16.73;9.98;;;2.00;36.00;;;;;;5000491;28;20229;-72
2022/03/07 13:52:20;;;;;;;14.45;9.85;;;2.10;35.60;;;;;;4999337;28;20194;-72
2022/03/07 13:54:50;;;;;;;15.77;10.63;;;2.00;35.60;;;;;;5000087;28;20242;-72
2022/03/07 13:57:19;;;;;;;12.98;10.13;;;2.00;35.20;;;;;;5000005;28;20266;-72
2022/03/07 13:59:58;;;;;;;15.02;10.65;;;1.90;35.90;;;;;;4999647;28;20261;-72
2022/03/07 14:02:26;;;;;;;12.77;9.65;;;1.90;35.80;;;;;;4999599;28;20183;-71
2022/03/07 14:04:58;;;;;;;13.65;9.88;;;2.00;36.10;;;;;;4998945;28;20226;-72
2022/03/07 14:07:30;;;;;;;13.40;10.48;;;2.10;36.20;;;;;;4999273;28;20222;-72
2022/03/07 14:10:00;;;;;;;14.80;10.98;;;2.10;35.90;;;;;;5000502;28;20217;-72
2022/03/07 14:12:29;;;;;;;13.32;10.25;;;2.10;36.40;;;;;;4997098;28;20332;-72
2022/03/07 14:15:04;;;;;;;14.10;11.38;;;2.10;36.80;;;;;;4995801;28;20273;-71
2022/03/07 14:17:32;;;;;;;11.80;9.88;;;2.10;37.10;;;;;;4995998;28;20652;-71
2022/03/07 14:20:01;;;;;;;13.63;10.25;;;2.10;36.70;;;;;;4996120;28;20226;-72
2022/03/07 14:22:28;;;;;;;10.88;9.50;;;2.20;36.90;;;;;;4996036;28;20203;-72
2022/03/07 14:24:58;;;;;;;10.57;8.68;;;2.20;36.40;;;;;;4995690;28;20223;-72
2022/03/07 14:27:28;;;;;;;14.43;10.50;;;2.30;36.30;;;;;;4995504;28;20664;-72
2022/03/07 14:29:55;;;;;;;15.45;10.85;;;2.20;35.90;;;;;;4996094;28;20274;-72
2022/03/07 14:32:22;;;;;;;12.52;10.00;;;2.20;35.20;;;;;;4995730;28;20689;-72
2022/03/07 14:34:54;;;;;;;12.73;10.35;;;2.10;35.20;;;;;;4996119;28;20223;-72
2022/03/07 14:37:23;;;;;;;13.85;10.15;;;2.00;35.10;;;;;;4996243;28;20305;-73
2022/03/07 14:39:51;;;;;;;13.38;9.15;;;2.00;35.30;;;;;;4996204;28;20207;-72
2022/03/07 14:42:18;;;;;;;14.93;11.52;;;2.00;35.70;;;;;;4995920;28;20289;-73
2022/03/07 14:44:44;;;;;;;11.70;10.45;;;2.00;36.00;;;;;;4995985;28;20218;-74
2022/03/07 14:47:12;;;;;;;14.25;10.35;;;2.00;36.50;;;;;;4995375;28;20685;-73
2022/03/07 14:49:39;;;;;;;13.30;10.45;;;2.00;36.50;;;;;;4996608;28;20227;-73
2022/03/07 14:52:07;;;;;;;14.43;10.80;;;2.00;36.80;;;;;;4995785;28;20230;-73
2022/03/07 14:54:38;;;;;;;17.45;11.57;;;2.00;37.20;;;;;;4994951;28;20666;-73
2022/03/07 14:57:05;;;;;;;18.23;11.80;;;2.00;37.50;;;;;;4995809;28;20193;-72
2022/03/07 14:59:32;;;;;;;13.63;10.13;;;1.90;37.30;;;;;;4995771;28;20211;-73
2022/03/07 15:01:59;;;;;;;12.85;10.60;;;1.90;37.30;;;;;;4995215;28;20636;-73
2022/03/07 15:04:26;;;;;;;14.27;10.85;;;1.90;37.70;;;;;;4995699;28;20209;-72
2022/03/07 15:06:53;;;;;;;13.77;11.70;;;1.80;38.20;;;;;;4995256;28;20322;-73
2022/03/07 15:09:19;;;;;;;14.48;11.85;;;1.80;38.50;;;;;;4995560;28;20205;-73
2022/03/07 15:11:48;;;;;;;16.13;11.90;;;1.80;38.30;;;;;;4995376;28;20211;-73
2022/03/07 15:14:19;;;;;;;16.50;11.50;;;1.70;38.60;;;;;;4994953;28;20745;-73
2022/03/07 15:16:49;;;;;;;12.25;10.00;;;1.80;38.50;;;;;;4995146;28;20634;-73
2022/03/07 15:19:18;;;;;;;15.50;10.60;;;1.70;38.50;;;;;;4995204;28;20182;-73
2022/03/07 15:21:45;;;;;;;15.20;11.45;;;1.70;37.50;;;;;;4995235;28;20207;-73
2022/03/07 15:24:14;;;;;;;15.13;11.32;;;1.60;37.80;;;;;;4994802;28;20315;-73
2022/03/07 15:26:41;;;;;;;14.70;11.18;;;1.60;38.00;;;;;;4994818;28;20231;-72
2022/03/07 15:29:11;;;;;;;12.48;10.63;;;1.60;37.70;;;;;;4994983;28;20205;-73
2022/03/07 15:31:41;;;;;;;12.35;10.65;;;1.60;38.00;;;;;;4994921;28;20207;-73
2022/03/07 15:34:08;;;;;;;11.25;9.68;;;1.60;38.30;;;;;;4994896;28;20213;-73
2022/03/07 15:36:40;;;;;;;12.90;10.18;;;1.60;38.30;;;;;;4994833;28;20306;-73
2022/03/07 15:39:08;;;;;;;13.35;10.35;;;1.60;37.90;;;;;;4994861;28;20187;-73
2022/03/07 15:41:35;;;;;;;15.20;10.57;;;1.60;39.00;;;;;;4994478;28;20669;-73
2022/03/07 15:44:01;;;;;;;14.07;10.85;;;1.60;38.40;;;;;;4994558;28;20190;-73
2022/03/07 15:46:30;;;;;;;16.33;11.05;;;1.50;38.30;;;;;;4994335;28;20262;-74
2022/03/07 15:48:56;;;;;;;15.70;12.40;;;1.50;38.60;;;;;;4994619;28;20238;-73
2022/03/07 15:51:23;;;;;;;17.42;11.80;;;1.40;38.80;;;;;;4994664;28;20249;-74
2022/03/07 15:53:50;;;;;;;13.85;10.68;;;1.30;39.30;;;;;;4994731;28;20298;-73
2022/03/07 15:56:17;;;;;;;14.80;10.88;;;1.30;40.20;;;;;;4995284;28;20626;-73
2022/03/07 15:58:45;;;;;;;15.15;11.77;;;1.30;40.50;;;;;;4994490;28;20655;-73
2022/03/07 16:01:13;;;;;;;15.15;11.95;;;1.20;40.40;;;;;;4994380;28;20201;-73
2022/03/07 16:03:41;;;;;;;15.30;11.02;;;1.20;40.60;;;;;;4994330;28;20622;-73
2022/03/07 16:06:09;;;;;;;13.95;11.07;;;1.20;41.00;;;;;;4993186;28;20793;-72
2022/03/07 16:08:36;;;;;;;17.80;12.30;;;1.20;41.00;;;;;;4994227;28;20670;-72
2022/03/07 16:11:03;;;;;;;14.95;11.68;;;1.10;41.20;;;;;;4994247;28;20229;-73
2022/03/07 16:13:30;;;;;;;15.75;11.40;;;1.10;41.30;;;;;;4994781;28;20606;-74
2022/03/07 16:15:57;;;;;;;16.70;11.57;;;1.10;41.40;;;;;;4995399;28;20258;-73
2022/03/07 16:18:25;;;;;;;12.98;10.20;;;1.00;41.20;;;;;;4994128;28;20205;-73
2022/03/07 16:20:54;;;;;;;17.90;11.90;;;0.90;41.50;;;;;;4994119;28;20209;-73
2022/03/07 16:23:22;;;;;;;15.60;11.25;;;0.80;42.00;;;;;;4993911;28;20723;-73
2022/03/07 16:25:52;;;;;;;17.33;11.60;;;0.80;42.50;;;;;;4994265;28;20627;-74
2022/03/07 16:28:21;;;;;;;16.20;11.40;;;0.80;42.50;;;;;;4993720;28;20757;-75
2022/03/07 16:30:51;;;;;;;14.30;11.43;;;0.80;42.50;;;;;;4993730;28;20292;-73
2022/03/07 16:33:19;;;;;;;19.50;12.45;;;0.80;43.30;;;;;;4993823;28;20665;-70
2022/03/07 16:35:47;;;;;;;16.55;12.43;;;0.70;43.40;;;;;;4993963;28;20229;-71
2022/03/07 16:38:16;;;;;;;17.90;12.25;;;0.70;43.80;;;;;;4994075;28;20761;-72
2022/03/07 16:40:43;;;;;;;16.88;12.70;;;0.60;44.20;;;;;;4994029;28;20198;-72
2022/03/07 16:43:11;;;;;;;17.70;13.05;;;0.60;44.60;;;;;;4994127;28;20297;-72
2022/03/07 16:45:38;;;;;;;16.90;12.73;;;0.60;44.60;;;;;;4994564;28;20218;-71
2022/03/07 16:48:07;;;;;;;17.70;12.85;;;0.50;45.10;;;;;;4997061;28;20314;-71
2022/03/07 16:50:34;;;;;;;19.90;13.63;;;0.40;45.50;;;;;;4998005;28;20262;-72
2022/03/07 16:53:02;;;;;;;15.38;12.40;;;0.30;45.90;;;;;;4999378;28;20290;-71
2022/03/07 16:55:30;;;;;;;20.33;12.95;;;0.30;46.50;;;;;;5001947;28;20313;-72
2022/03/07 16:57:58;;;;;;;17.85;13.25;;;0.30;46.80;;;;;;4999179;28;20262;-72
2022/03/07 17:00:25;;;;;;;19.83;12.15;;;0.20;46.70;;;;;;4994972;28;20229;-72
2022/03/07 17:02:52;;;;;;;16.90;12.27;;;0.30;46.80;;;;;;4993923;28;20220;-72
2022/03/07 17:05:19;;;;;;;15.82;12.25;;;0.20;46.80;;;;;;4994093;28;20229;-72
2022/03/07 17:07:46;;;;;;;17.35;12.23;;;0.10;47.60;;;;;;4993609;28;20222;-72
2022/03/07 17:10:14;;;;;;;17.08;12.55;;;0.10;48.30;;;;;;4993798;28;20207;-73
2022/03/07 17:12:43;;;;;;;16.75;11.70;;;0.10;47.80;;;;;;4993648;28;20203;-72
2022/03/07 17:15:11;;;;;;;16.38;11.68;;;0.00;48.60;;;;;;4993398;28;20223;-72
2022/03/07 17:17:38;;;;;;;16.90;12.88;;;0.00;49.10;;;;;;4996314;28;20193;-74
2022/03/07 17:20:07;;;;;;;17.77;12.60;;;-0.10;49.40;;;;;;4997359;28;20199;-73
2022/03/07 17:22:34;;;;;;;18.58;12.15;;;-0.10;49.70;;;;;;4997307;28;20289;-73
2022/03/07 17:25:02;;;;;;;16.35;12.10;;;-0.10;50.20;;;;;;4997132;28;20254;-72
2022/03/07 17:27:28;;;;;;;17.92;12.10;;;-0.10;51.00;;;;;;4996928;28;20202;-71
2022/03/07 17:29:57;;;;;;;20.17;13.80;;;-0.20;51.00;;;;;;4997217;28;20206;-71
2022/03/07 17:32:24;;;;;;;21.38;13.93;;;-0.20;51.60;;;;;;4997189;28;20183;-71
2022/03/07 17:34:51;;;;;;;21.15;13.98;;;-0.20;52.00;;;;;;4996941;28;20309;-71
2022/03/07 17:37:18;;;;;;;16.70;12.57;;;-0.30;52.60;;;;;;4997248;28;20238;-72
2022/03/07 17:39:45;;;;;;;19.35;13.75;;;-0.30;53.10;;;;;;4996919;28;20205;-69
2022/03/07 17:42:12;;;;;;;16.38;12.68;;;-0.30;53.40;;;;;;4996823;28;20202;-70
2022/03/07 17:44:38;;;;;;;18.45;12.00;;;-0.40;53.70;;;;;;4996812;28;20317;-70
2022/03/07 17:47:07;;;;;;;17.65;11.77;;;-0.40;53.90;;;;;;4997556;28;20314;-69
2022/03/07 17:49:34;;;;;;;14.50;11.73;;;-0.40;53.90;;;;;;4997600;28;20199;-69
2022/03/07 17:52:01;;;;;;;16.05;12.40;;;-0.40;53.90;;;;;;4997198;28;20394;-70
2022/03/07 17:54:28;;;;;;;17.80;12.70;;;-0.50;54.10;;;;;;4996430;28;20633;-70
2022/03/07 17:56:55;;;;;;;16.15;12.70;;;-0.50;54.30;;;;;;4996469;28;20191;-71
2022/03/07 17:59:22;;;;;;;16.38;12.05;;;-0.60;54.60;;;;;;4997925;28;20230;-70
2022/03/07 18:01:49;;;;;;;19.45;13.13;;;-0.60;55.10;;;;;;4996625;28;20705;-71
2022/03/07 18:04:17;;;;;;;15.55;11.57;;;-0.60;55.30;;;;;;4997655;28;20197;-71
2022/03/07 18:06:45;;;;;;;18.17;12.90;;;-0.60;55.80;;;;;;4999125;28;20242;-71
2022/03/07 18:09:13;;;;;;;20.88;13.73;;;-0.70;55.90;;;;;;4998413;28;20211;-70
2022/03/07 18:11:40;;;;;;;16.60;12.50;;;-0.70;57.00;;;;;;4998508;28;20206;-70
2022/03/07 18:14:07;;;;;;;16.95;12.38;;;-0.70;56.90;;;;;;4999301;28;20205;-68
2022/03/07 18:16:34;;;;;;;18.77;12.70;;;-0.70;56.90;;;;;;4996782;28;20222;-69
2022/03/07 18:19:01;;;;;;;19.05;12.73;;;-0.80;57.90;;;;;;4996479;28;20190;-71
2022/03/07 18:21:29;;;;;;;18.85;12.35;;;-0.80;58.00;;;;;;4997043;28;20294;-71
2022/03/07 18:23:57;;;;;;;21.13;13.48;;;-0.80;58.60;;;;;;4996574;28;20302;-70
2022/03/07 18:26:24;;;;;;;20.98;14.30;;;-0.90;59.30;;;;;;4995727;28;20705;-69
2022/03/07 18:28:51;;;;;;;19.58;13.10;;;-0.90;58.80;;;;;;4994704;28;20690;-70
2022/03/07 18:31:18;;;;;;;22.55;14.70;;;-1.00;59.20;;;;;;4996623;28;20253;-68
2022/03/07 18:33:45;;;;;;;20.92;13.13;;;-1.00;60.10;;;;;;4996523;28;20202;-70
2022/03/07 18:36:13;;;;;;;17.40;13.23;;;-1.00;59.50;;;;;;4995590;28;20780;-70
2022/03/07 18:38:41;;;;;;;21.40;13.88;;;-1.10;60.20;;;;;;4996115;28;20221;-70
2022/03/07 18:41:08;;;;;;;20.23;13.07;;;-1.10;59.90;;;;;;4995910;28;20234;-70
2022/03/07 18:43:35;;;;;;;17.38;12.88;;;-1.10;60.90;;;;;;4995993;28;20241;-69
2022/03/07 18:46:02;;;;;;;19.75;13.90;;;-1.20;60.80;;;;;;4996019;28;20258;-69
2022/03/07 18:48:29;;;;;;;19.35;12.88;;;-1.20;61.10;;;;;;4995615;28;20215;-69
2022/03/07 18:50:56;;;;;;;19.25;13.50;;;-1.20;61.70;;;;;;4995644;28;20213;-69
2022/03/07 18:53:23;;;;;;;17.17;11.75;;;-1.20;61.70;;;;;;4995700;28;20285;-69
2022/03/07 18:55:51;;;;;;;18.15;12.82;;;-1.20;61.90;;;;;;4996352;28;20232;-70
2022/03/07 18:58:18;;;;;;;21.80;13.30;;;-1.20;61.20;;;;;;4995457;28;20199;-70
2022/03/07 19:00:47;;;;;;;18.45;13.15;;;-1.30;61.50;;;;;;4996009;28;20293;-71
2022/03/07 19:03:14;;;;;;;17.20;12.30;;;-1.30;62.00;;;;;;4995795;28;20225;-69
2022/03/07 19:05:41;;;;;;;16.90;12.27;;;-1.30;61.90;;;;;;4995170;28;20229;-68
2022/03/07 19:08:07;;;;;;;20.80;13.55;;;-1.30;61.70;;;;;;4995365;28;20211;-69
2022/03/07 19:10:35;;;;;;;19.33;13.07;;;-1.30;62.50;;;;;;4995342;28;20293;-70
2022/03/07 19:13:03;;;;;;;16.17;12.13;;;-1.30;61.90;;;;;;4994999;28;20289;-70
2022/03/07 19:15:31;;;;;;;16.13;11.25;;;-1.30;62.10;;;;;;4995108;28;20235;-69
2022/03/07 19:17:57;;;;;;;17.23;12.25;;;-1.30;62.10;;;;;;4995179;28;20203;-67
2022/03/07 19:20:25;;;;;;;19.17;12.60;;;-1.40;62.20;;;;;;4994869;28;20206;-68
2022/03/07 19:22:53;;;;;;;23.38;13.25;;;-1.40;62.20;;;;;;4995259;28;20203;-68
2022/03/07 19:25:20;;;;;;;17.75;12.57;;;-1.40;62.20;;;;;;4995070;28;20313;-68
2022/03/07 19:27:47;;;;;;;16.92;12.02;;;-1.40;61.90;;;;;;4995021;28;20313;-69
2022/03/07 19:30:16;;;;;;;18.42;11.73;;;-1.40;61.90;;;;;;4994640;28;20297;-68
2022/03/07 19:32:44;;;;;;;15.27;10.93;;;-1.40;62.30;;;;;;4994884;28;20230;-68
2022/03/07 19:35:11;;;;;;;17.38;12.02;;;-1.40;61.60;;;;;;4994812;28;20258;-68
2022/03/07 19:37:38;;;;;;;16.58;11.63;;;-1.40;61.70;;;;;;4994806;28;20278;-68
2022/03/07 19:40:08;;;;;;;18.17;11.60;;;-1.40;62.10;;;;;;4994606;28;20209;-68
2022/03/07 19:42:35;;;;;;;19.98;12.77;;;-1.40;62.20;;;;;;4994659;28;20210;-67
2022/03/07 19:45:02;;;;;;;26.67;14.77;;;-1.50;62.60;;;;;;4994559;28;20250;-70
2022/03/07 19:47:30;;;;;;;21.73;13.23;;;-1.60;62.80;;;;;;4994314;28;20753;-69
2022/03/07 19:49:57;;;;;;;21.98;13.68;;;-1.60;63.60;;;;;;4994690;28;20207;-70
2022/03/07 19:52:24;;;;;;;18.50;13.35;;;-1.60;63.70;;;;;;4994601;28;20230;-70
2022/03/07 19:54:51;;;;;;;18.75;13.05;;;-1.60;64.50;;;;;;4994585;28;20258;-70
2022/03/07 19:57:18;;;;;;;18.20;12.50;;;-1.70;64.70;;;;;;4994441;28;20211;-70
2022/03/07 19:59:45;;;;;;;20.33;13.20;;;-1.70;65.40;;;;;;4994339;28;20285;-70
2022/03/07 20:02:12;;;;;;;19.00;12.98;;;-1.70;65.30;;;;;;4994229;28;20241;-70
2022/03/07 20:04:40;;;;;;;17.25;11.85;;;-1.70;65.40;;;;;;4994272;28;20262;-70
2022/03/07 20:07:07;;;;;;;15.70;10.55;;;-1.70;65.50;;;;;;4994072;28;20649;-69
2022/03/07 20:09:34;;;;;;;14.07;10.25;;;-1.70;65.50;;;;;;4994273;28;20256;-69
2022/03/07 20:12:01;;;;;;;16.75;12.13;;;-1.70;65.40;;;;;;4994298;28;20209;-69
2022/03/07 20:14:28;;;;;;;16.05;11.45;;;-1.70;64.50;;;;;;4994148;28;20293;-70
2022/03/07 20:16:55;;;;;;;19.33;12.27;;;-1.70;64.80;;;;;;4994171;28;20206;-70
2022/03/07 20:19:22;;;;;;;18.98;13.45;;;-1.80;64.80;;;;;;4993751;28;20285;-70
2022/03/07 20:21:51;;;;;;;18.85;12.90;;;-1.80;64.40;;;;;;4994465;28;20198;-70
2022/03/07 20:24:18;;;;;;;18.52;12.88;;;-1.90;64.50;;;;;;4994832;28;20202;-70
2022/03/07 20:26:45;;;;;;;17.17;12.85;;;-1.80;65.10;;;;;;4994249;28;20293;-70
2022/03/07 20:29:12;;;;;;;17.67;12.82;;;-1.80;64.80;;;;;;4993875;28;20770;-70
2022/03/07 20:31:38;;;;;;;21.27;13.27;;;-1.90;64.10;;;;;;4993871;28;20293;-70
2022/03/07 20:34:07;;;;;;;20.05;13.25;;;-1.80;63.90;;;;;;4994040;28;20238;-70
2022/03/07 20:36:34;;;;;;;16.23;13.02;;;-1.90;64.20;;;;;;4993897;28;20227;-70
2022/03/07 20:39:03;;;;;;;17.70;12.75;;;-1.90;64.10;;;;;;4994007;28;20201;-71
2022/03/07 20:41:30;;;;;;;21.33;14.00;;;-1.90;64.10;;;;;;4993855;28;20207;-70
2022/03/07 20:43:57;;;;;;;18.88;12.68;;;-2.00;63.80;;;;;;4993887;28;20294;-70
2022/03/07 20:46:24;;;;;;;18.48;13.82;;;-2.00;64.00;;;;;;4993938;28;20232;-70
2022/03/07 20:48:51;;;;;;;20.90;13.70;;;-2.00;64.50;;;;;;4993905;28;20257;-70
2022/03/07 20:51:18;;;;;;;19.55;14.18;;;-2.00;64.80;;;;;;4994567;28;20206;-70
2022/03/07 20:53:45;;;;;;;19.23;14.18;;;-2.00;64.30;;;;;;4997949;28;20206;-70
2022/03/07 20:56:13;;;;;;;20.90;13.60;;;-2.00;65.20;;;;;;4998082;28;20218;-70
2022/03/07 20:58:40;;;;;;;19.38;13.23;;;-2.00;64.90;;;;;;4997729;28;20666;-70
2022/03/07 21:01:07;;;;;;;18.13;13.55;;;-2.00;64.60;;;;;;4997928;28;20293;-69
2022/03/07 21:03:34;;;;;;;17.85;12.38;;;-2.00;64.10;;;;;;4997684;28;20209;-70
2022/03/07 21:06:01;;;;;;;15.80;11.93;;;-2.10;64.60;;;;;;4997160;28;20601;-73
2022/03/07 21:08:28;;;;;;;22.52;14.45;;;-2.10;64.30;;;;;;4997373;28;20219;-72
2022/03/07 21:10:55;;;;;;;22.38;14.75;;;-2.10;64.80;;;;;;4997406;28;20203;-71
2022/03/07 21:13:23;;;;;;;21.98;14.35;;;-2.20;65.40;;;;;;4997353;28;20202;-69
2022/03/07 21:15:51;;;;;;;19.15;13.75;;;-2.20;66.80;;;;;;4997526;28;20332;-70
2022/03/07 21:18:20;;;;;;;21.23;14.48;;;-2.20;67.70;;;;;;4997647;28;20195;-70
2022/03/07 21:20:48;;;;;;;18.90;13.75;;;-2.20;67.30;;;;;;4997143;28;20267;-70
2022/03/07 21:23:15;;;;;;;20.65;14.15;;;-2.20;67.10;;;;;;4997405;28;20658;-71
2022/03/07 21:25:42;;;;;;;16.92;12.93;;;-2.30;67.30;;;;;;4997171;28;20705;-71
2022/03/07 21:28:09;;;;;;;22.67;14.50;;;-2.30;67.20;;;;;;4997020;28;20641;-71
2022/03/07 21:30:38;;;;;;;20.73;14.23;;;-2.30;66.60;;;;;;4997134;28;20295;-71
2022/03/07 21:33:05;;;;;;;23.33;15.07;;;-2.30;67.40;;;;;;4997291;28;20309;-69
2022/03/07 21:35:32;;;;;;;20.35;13.57;;;-2.40;68.40;;;;;;4997150;28;20229;-71
2022/03/07 21:37:59;;;;;;;20.48;13.93;;;-2.30;68.60;;;;;;4997221;28;20291;-69
2022/03/07 21:40:27;;;;;;;25.00;15.05;;;-2.30;68.60;;;;;;4996826;28;20686;-68
2022/03/07 21:42:54;;;;;;;21.05;14.32;;;-2.40;68.10;;;;;;4997385;28;20210;-68
2022/03/07 21:45:21;;;;;;;20.10;13.30;;;-2.40;68.10;;;;;;4997379;28;20219;-71
2022/03/07 21:47:50;;;;;;;19.58;13.15;;;-2.40;67.80;;;;;;4997463;28;20309;-70
2022/03/07 21:50:17;;;;;;;21.80;15.20;;;-2.40;68.50;;;;;;4996949;28;20312;-68
2022/03/07 21:52:44;;;;;;;23.08;14.52;;;-2.40;68.10;;;;;;5020509;23;20205;-68
2022/03/07 21:55:13;;;;;;;23.52;14.93;;;-2.50;68.10;;;;;;4997513;28;20263;-70
2022/03/07 21:57:41;;;;;;;24.02;14.63;;;-2.50;68.80;;;;;;4997114;28;20744;-70
2022/03/07 22:00:10;;;;;;;22.55;14.95;;;-2.50;68.90;;;;;;4997518;28;20286;-68